Time;durP1;ratioP1;P1;durP2;ratioP2;P2;SDS_P1;SDS_P2;PMS_P1;PMS_P2;Temp;Humidity;BMP_temperature;BMP_pressure;BME280_temperature;BME280_humidity;BME280_pressure;Samples;Min_cycle;Max_cycle;Signal;HPM_P1;HPM_P2
2023/12/24 00:01:02;;;;;;;2.45;1.50;;;;;;;9.16;81.66;97375.03;5051107;28;20647;-57
2023/12/24 00:03:27;;;;;;;4.15;1.80;;;;;;;8.98;80.11;97309.38;5051078;28;20201;-57
2023/12/24 00:05:53;;;;;;;1.92;1.73;;;;;;;9.32;79.45;97354.78;5051407;28;20205;-57
2023/12/24 00:08:18;;;;;;;3.08;2.17;;;;;;;9.62;79.60;97385.88;5051348;28;20227;-57
2023/12/24 00:10:43;;;;;;;3.00;1.90;;;;;;;9.29;78.14;97311.16;5051355;28;20213;-57
2023/12/24 00:13:09;;;;;;;2.00;1.80;;;;;;;9.46;77.43;97305.44;5051320;28;20239;-57
2023/12/24 00:15:34;;;;;;;3.63;1.85;;;;;;;9.53;76.79;97312.53;5051087;28;20212;-58
2023/12/24 00:18:00;;;;;;;1.80;1.70;;;;;;;10.04;76.17;97359.16;5051377;28;20778;-58
2023/12/24 00:20:25;;;;;;;2.53;1.50;;;;;;;9.86;75.87;97320.13;5051171;28;20288;-58
2023/12/24 00:23:08;;;;;;;3.40;1.45;;;;;;;10.41;75.42;97388.72;5051089;28;20174;-57
2023/12/24 00:25:37;;;;;;;2.42;1.95;;;;;;;10.48;75.08;97384.69;5051324;28;20200;-57
2023/12/24 00:28:04;;;;;;;3.13;1.90;;;;;;;10.32;75.31;97354.13;5051239;28;20227;-57
2023/12/24 00:30:29;;;;;;;3.47;1.73;;;;;;;10.40;76.40;97374.16;5050788;28;20668;-57
2023/12/24 00:32:56;;;;;;;2.67;1.55;;;;;;;10.75;75.37;97429.72;5053241;28;20201;-57
2023/12/24 00:35:21;;;;;;;3.70;2.10;;;;;;;10.81;75.17;97424.03;5054608;28;20178;-57
2023/12/24 00:37:50;;;;;;;3.17;1.80;;;;;;;10.43;75.08;97350.63;5054621;28;20169;-57
2023/12/24 00:40:17;;;;;;;3.65;1.80;;;;;;;10.54;74.95;97360.88;5054137;28;20672;-57
2023/12/24 00:42:43;;;;;;;1.60;1.50;;;;;;;10.64;74.19;97351.41;5054808;28;20173;-57
2023/12/24 00:45:12;;;;;;;5.70;2.83;;;;;;;11.07;74.22;97429.56;5054762;28;20196;-57
2023/12/24 00:47:38;;;;;;;4.45;1.80;;;;;;;11.19;74.55;97418.97;5054504;28;20201;-57
2023/12/24 00:50:05;;;;;;;2.40;1.65;;;;;;;11.14;74.23;97402.22;5054471;28;20268;-56
2023/12/24 00:52:30;;;;;;;2.85;2.00;;;;;;;11.00;74.09;97377.53;5054141;28;20532;-57
2023/12/24 00:54:56;;;;;;;1.88;1.63;;;;;;;11.26;74.73;97433.03;5054097;28;20184;-57
2023/12/24 00:57:21;;;;;;;4.75;2.28;;;;;;;10.85;74.25;97341.81;5054405;28;20247;-57
2023/12/24 00:59:46;;;;;;;4.68;1.70;;;;;;;11.39;74.46;97428.41;5054231;28;20307;-57
2023/12/24 01:02:12;;;;;;;3.88;2.03;;;;;;;11.01;73.93;97360.22;5054001;28;20182;-57
2023/12/24 01:04:37;;;;;;;2.88;1.65;;;;;;;11.20;74.20;97393.91;5054222;28;20174;-57
2023/12/24 01:07:03;;;;;;;4.28;2.20;;;;;;;11.33;75.14;97435.91;5054147;28;20166;-57
2023/12/24 01:09:28;;;;;;;1.90;1.80;;;;;;;11.15;74.72;97390.91;5053837;28;20231;-57
2023/12/24 01:11:54;;;;;;;3.45;1.88;;;;;;;11.29;74.84;97425.00;5054074;28;20186;-58
2023/12/24 01:14:20;;;;;;;2.78;1.70;;;;;;;11.00;74.50;97356.00;5054102;28;20269;-57
2023/12/24 01:16:45;;;;;;;2.33;1.63;;;;;;;11.25;73.93;97376.19;5053973;28;20178;-57
2023/12/24 01:19:11;;;;;;;4.25;1.98;;;;;;;11.41;74.44;97404.97;5053969;28;20271;-58
2023/12/24 01:21:36;;;;;;;5.57;1.98;;;;;;;11.30;72.77;97381.78;5053830;28;20672;-58
2023/12/24 01:24:02;;;;;;;3.67;1.65;;;;;;;11.56;72.49;97437.31;5053881;28;20182;-58
2023/12/24 01:26:27;;;;;;;3.13;1.67;;;;;;;11.72;71.84;97460.97;5053918;28;20189;-58
2023/12/24 01:28:53;;;;;;;2.42;1.42;;;;;;;11.72;71.88;97464.34;5053777;28;20189;-58
2023/12/24 01:31:19;;;;;;;1.80;1.50;;;;;;;11.71;71.87;97472.25;5053697;28;20177;-58
2023/12/24 01:33:44;;;;;;;2.08;1.50;;;;;;;11.52;71.20;97404.84;5053593;28;20190;-57
2023/12/24 01:36:10;;;;;;;1.27;1.17;;;;;;;11.79;70.79;97438.72;5053650;28;20185;-57
2023/12/24 01:38:35;;;;;;;1.58;1.30;;;;;;;11.66;70.69;97420.03;5053567;28;20178;-57
2023/12/24 01:41:00;;;;;;;3.25;1.67;;;;;;;11.55;70.13;97425.31;5052811;28;20216;-58
2023/12/24 01:43:26;;;;;;;2.25;1.48;;;;;;;11.39;69.52;97366.25;5053097;28;20648;-57
2023/12/24 01:45:52;;;;;;;4.32;1.77;;;;;;;11.39;69.11;97366.25;5053424;28;20177;-57
2023/12/24 01:48:18;;;;;;;2.65;1.33;;;;;;;11.63;68.95;97397.81;5053395;28;20196;-57
2023/12/24 01:50:48;;;;;;;2.85;1.88;;;;;;;11.92;68.77;97441.88;5053569;28;20174;-58
2023/12/24 01:53:16;;;;;;;2.05;1.33;;;;;;;11.42;68.85;97365.16;5053069;28;20684;-57
2023/12/24 01:55:42;;;;;;;2.05;1.40;;;;;;;11.67;67.80;97378.44;5053293;28;20165;-58
2023/12/24 01:58:08;;;;;;;2.83;1.40;;;;;;;11.85;68.45;97436.41;5053240;28;20181;-57
2023/12/24 02:00:34;;;;;;;4.55;2.03;;;;;;;11.52;67.67;97378.94;5053077;28;20200;-57
2023/12/24 02:03:00;;;;;;;4.28;1.80;;;;;;;11.54;67.11;97380.44;5053152;28;20262;-57
2023/12/24 02:05:27;;;;;;;2.60;1.65;;;;;;;11.85;67.08;97427.81;5053070;28;20208;-58
2023/12/24 02:07:55;;;;;;;4.47;1.90;;;;;;;11.83;67.38;97456.47;5053020;28;20178;-57
2023/12/24 02:10:20;;;;;;;1.92;1.42;;;;;;;11.60;67.10;97398.06;5052890;28;20174;-57
2023/12/24 02:12:46;;;;;;;3.47;1.65;;;;;;;12.15;65.25;97479.53;5052919;28;20178;-57
2023/12/24 02:15:12;;;;;;;2.65;1.52;;;;;;;11.97;64.61;97429.31;5052782;28;20189;-57
2023/12/24 02:17:38;;;;;;;2.35;1.38;;;;;;;12.07;63.64;97437.91;5052826;28;20174;-58
2023/12/24 02:20:04;;;;;;;1.75;1.42;;;;;;;12.27;63.71;97458.50;5052448;28;20194;-57
2023/12/24 02:22:30;;;;;;;1.70;1.52;;;;;;;11.97;63.50;97421.53;5052769;28;20201;-57
2023/12/24 02:24:56;;;;;;;2.53;1.42;;;;;;;12.37;63.17;97489.63;5052600;28;20273;-57
2023/12/24 02:27:32;;;;;;;1.67;1.58;;;;;;;11.90;62.90;97415.28;5052952;28;20224;-57
2023/12/24 02:30:05;;;;;;;1.48;1.13;;;;;;;12.22;63.08;97457.25;5052686;28;20169;-57
2023/12/24 02:32:33;;;;;;;1.92;1.70;;;;;;;11.94;62.76;97439.94;5033814;28;20193;-57
2023/12/24 02:35:01;;;;;;;2.20;1.58;;;;;;;11.95;62.89;97433.78;5052500;28;20185;-57
2023/12/24 02:37:27;;;;;;;2.03;1.50;;;;;;;12.15;62.54;97461.38;5052791;28;20186;-57
2023/12/24 02:39:52;;;;;;;3.40;1.50;;;;;;;11.94;61.85;97434.75;5052186;28;20614;-57
2023/12/24 02:42:18;;;;;;;2.58;1.52;;;;;;;12.22;61.61;97499.59;5052138;28;20193;-57
2023/12/24 02:44:43;;;;;;;1.88;1.55;;;;;;;11.96;61.78;97443.25;5052370;28;20166;-57
2023/12/24 02:47:08;;;;;;;2.25;1.10;;;;;;;11.97;60.67;97443.06;5052233;28;20193;-57
2023/12/24 02:49:34;;;;;;;1.48;1.17;;;;;;;12.08;60.13;97465.47;5052599;28;20170;-58
2023/12/24 02:51:59;;;;;;;1.92;1.45;;;;;;;12.56;59.86;97549.25;5052587;28;20173;-57
2023/12/24 02:54:25;;;;;;;2.67;1.70;;;;;;;12.08;59.60;97465.47;5051750;28;20188;-57
2023/12/24 02:56:50;;;;;;;1.35;1.25;;;;;;;12.50;59.60;97562.78;5052193;28;20624;-57
2023/12/24 02:59:15;;;;;;;1.15;1.05;;;;;;;12.40;58.76;97538.59;5051880;28;20170;-58
2023/12/24 03:01:41;;;;;;;1.80;1.35;;;;;;;12.52;59.49;97558.25;5052120;28;20648;-57
2023/12/24 03:04:06;;;;;;;1.17;1.13;;;;;;;12.00;56.48;97489.47;5052106;28;20216;-57
2023/12/24 03:06:32;;;;;;;0.90;0.90;;;;;;;12.19;56.74;97514.59;5052104;28;20190;-57
2023/12/24 03:08:58;;;;;;;0.98;0.90;;;;;;;12.28;56.23;97519.78;5049497;28;20177;-57
2023/12/24 03:11:23;;;;;;;2.67;1.70;;;;;;;12.01;55.42;97490.31;5049565;28;20276;-57
2023/12/24 03:13:49;;;;;;;0.80;0.80;;;;;;;12.48;55.34;97549.13;5049888;28;20193;-57
2023/12/24 03:16:17;;;;;;;1.05;0.90;;;;;;;12.52;54.92;97573.84;5049602;28;20265;-57
2023/12/24 03:18:42;;;;;;;2.40;1.05;;;;;;;12.44;55.07;97573.72;5049637;28;20693;-57
2023/12/24 03:21:08;;;;;;;1.38;1.00;;;;;;;12.27;54.80;97536.31;5049455;28;20194;-58
2023/12/24 03:23:33;;;;;;;1.20;1.10;;;;;;;12.17;54.45;97519.09;5049362;28;20441;-58
2023/12/24 03:25:58;;;;;;;1.85;0.80;;;;;;;12.44;54.54;97571.13;5049256;28;20257;-58
2023/12/24 03:28:24;;;;;;;1.73;1.00;;;;;;;12.33;55.01;97566.88;5049317;28;20189;-58
2023/12/24 03:30:49;;;;;;;1.67;1.10;;;;;;;12.14;55.71;97543.50;5049279;28;20181;-57
2023/12/24 03:33:14;;;;;;;1.27;1.00;;;;;;;12.45;54.94;97589.16;5049315;28;20178;-57
2023/12/24 03:35:41;;;;;;;0.80;0.80;;;;;;;12.24;54.31;97559.06;5049310;28;20276;-58
2023/12/24 03:38:07;;;;;;;1.17;1.10;;;;;;;12.33;53.87;97595.41;5049284;28;20621;-58
2023/12/24 03:40:32;;;;;;;1.00;1.00;;;;;;;12.43;54.49;97609.19;5050681;28;20214;-58
2023/12/24 03:42:57;;;;;;;1.40;1.30;;;;;;;12.46;54.46;97631.47;5051655;28;20170;-58
2023/12/24 03:45:23;;;;;;;1.00;0.60;;;;;;;12.37;54.23;97611.53;5051632;28;20265;-57
2023/12/24 03:47:49;;;;;;;1.15;1.15;;;;;;;12.39;54.66;97625.19;5051316;28;20174;-57
2023/12/24 03:50:15;;;;;;;0.90;0.90;;;;;;;12.34;54.59;97620.41;5051508;28;20641;-57
2023/12/24 03:52:40;;;;;;;1.80;1.67;;;;;;;12.10;55.00;97588.00;5051499;28;20283;-57
2023/12/24 03:55:06;;;;;;;0.95;0.95;;;;;;;11.83;54.67;97562.72;5051176;28;20178;-57
2023/12/24 03:57:31;;;;;;;1.05;1.05;;;;;;;11.85;54.25;97552.22;5051529;28;20181;-57
2023/12/24 03:59:56;;;;;;;0.82;0.80;;;;;;;12.11;54.17;97615.56;5051700;28;20205;-57
2023/12/24 04:02:24;;;;;;;0.82;0.82;;;;;;;12.07;54.13;97572.75;5051503;28;20249;-57
2023/12/24 04:04:50;;;;;;;1.17;1.08;;;;;;;11.96;54.20;97586.63;5051350;28;20236;-57
2023/12/24 04:07:16;;;;;;;1.02;0.80;;;;;;;12.36;53.82;97635.84;5052875;28;20178;-57
2023/12/24 04:09:42;;;;;;;1.25;1.15;;;;;;;11.79;54.41;97542.41;5055275;28;20204;-57
2023/12/24 04:12:09;;;;;;;0.93;0.93;;;;;;;11.77;54.27;97544.28;5052687;28;20190;-57
2023/12/24 04:14:38;;;;;;;1.17;0.93;;;;;;;11.80;54.70;97560.38;5052731;28;20251;-57
2023/12/24 04:17:04;;;;;;;2.45;1.52;;;;;;;12.25;54.42;97644.53;5052710;28;20246;-57
2023/12/24 04:19:30;;;;;;;2.22;1.20;;;;;;;12.22;54.63;97654.34;5052646;28;20190;-57
2023/12/24 04:21:57;;;;;;;1.98;1.20;;;;;;;12.18;54.60;97664.19;5052608;28;20269;-57
2023/12/24 04:24:23;;;;;;;1.00;1.00;;;;;;;11.81;54.53;97592.31;5052439;28;20622;-57
2023/12/24 04:26:48;;;;;;;1.00;0.85;;;;;;;12.24;54.82;97663.66;5052506;28;20189;-57
2023/12/24 04:29:14;;;;;;;1.80;1.55;;;;;;;12.26;54.57;97692.84;5052609;28;20265;-57
2023/12/24 04:31:40;;;;;;;2.60;1.33;;;;;;;12.13;54.29;97681.09;5052355;28;20196;-57
2023/12/24 04:34:08;;;;;;;1.35;1.25;;;;;;;12.00;54.97;97662.34;5052465;28;20264;-57
2023/12/24 04:36:34;;;;;;;2.20;1.48;;;;;;;12.04;54.94;97633.47;5052363;28;20576;-57
2023/12/24 04:39:00;;;;;;;1.10;1.02;;;;;;;11.99;54.57;97642.56;5052309;28;20189;-57
2023/12/24 04:41:28;;;;;;;1.20;1.20;;;;;;;11.95;54.52;97646.38;5052311;28;20198;-57
2023/12/24 04:43:54;;;;;;;2.53;1.67;;;;;;;12.01;55.04;97640.69;5054132;28;20255;-57
2023/12/24 04:46:19;;;;;;;2.08;1.20;;;;;;;12.23;55.64;97689.72;5054728;28;20624;-57
2023/12/24 04:48:44;;;;;;;4.50;1.10;;;;;;;11.65;55.62;97598.00;5054447;28;20185;-57
2023/12/24 04:51:11;;;;;;;1.23;1.13;;;;;;;12.13;55.07;97705.25;5054566;28;20173;-57
2023/12/24 04:53:36;;;;;;;1.40;1.30;;;;;;;11.85;55.16;97659.31;5054424;28;20174;-57
2023/12/24 04:56:02;;;;;;;2.45;1.17;;;;;;;12.19;54.67;97694.34;5051932;28;20250;-57
2023/12/24 04:58:27;;;;;;;1.92;1.05;;;;;;;12.02;54.52;97674.22;5051948;28;20189;-57
2023/12/24 05:00:53;;;;;;;0.90;0.90;;;;;;;12.26;54.79;97712.81;5051891;28;20240;-57
2023/12/24 05:03:18;;;;;;;1.30;1.20;;;;;;;11.96;54.92;97658.41;5052113;28;20697;-57
2023/12/24 05:05:44;;;;;;;1.50;0.90;;;;;;;12.27;54.98;97709.25;5051775;28;20838;-57
2023/12/24 05:08:09;;;;;;;1.95;1.08;;;;;;;12.26;55.14;97712.81;5051866;28;20227;-57
2023/12/24 05:10:34;;;;;;;1.75;1.15;;;;;;;11.83;54.81;97647.41;5051758;28;20193;-57
2023/12/24 05:13:00;;;;;;;1.00;1.00;;;;;;;12.29;54.52;97722.91;5051663;28;20178;-57
2023/12/24 05:15:26;;;;;;;1.58;1.48;;;;;;;12.07;55.27;97692.81;5031591;28;20719;-57
2023/12/24 05:17:51;;;;;;;1.50;1.40;;;;;;;12.16;55.25;97722.31;5031227;28;20273;-57
2023/12/24 05:20:17;;;;;;;2.30;1.40;;;;;;;12.25;55.64;97753.47;5031507;28;20317;-57
2023/12/24 05:22:42;;;;;;;1.98;1.30;;;;;;;11.82;55.55;97695.03;5031585;28;20183;-57
2023/12/24 05:25:08;;;;;;;1.67;1.58;;;;;;;11.81;55.42;97690.81;5031244;28;20206;-57
2023/12/24 05:27:34;;;;;;;2.20;1.60;;;;;;;12.31;55.39;97780.69;4986673;28;20188;-57
2023/12/24 05:29:59;;;;;;;2.45;1.65;;;;;;;12.27;55.68;97771.50;4991803;28;20211;-57
2023/12/24 05:32:25;;;;;;;2.88;2.17;;;;;;;11.86;56.20;97725.75;4992063;28;20202;-57
2023/12/24 05:34:50;;;;;;;1.45;1.15;;;;;;;11.59;55.97;97690.97;4991981;28;20275;-57
2023/12/24 05:37:16;;;;;;;4.07;1.88;;;;;;;11.94;56.02;97743.25;4992229;28;20183;-57
2023/12/24 05:39:44;;;;;;;1.48;1.38;;;;;;;12.04;56.11;97760.50;4991749;28;20231;-57
2023/12/24 05:42:10;;;;;;;1.77;1.67;;;;;;;12.18;55.94;97793.03;4991774;28;20287;-57
2023/12/24 05:44:35;;;;;;;1.85;1.42;;;;;;;11.79;55.61;97723.81;4991759;28;20179;-57
2023/12/24 05:47:01;;;;;;;2.25;1.15;;;;;;;12.26;56.20;97824.34;4991687;28;20646;-57
2023/12/24 05:49:27;;;;;;;0.90;0.90;;;;;;;12.02;55.67;97777.13;4991611;28;20188;-57
2023/12/24 05:51:53;;;;;;;0.90;0.90;;;;;;;12.30;55.28;97833.47;4991714;28;20184;-57
2023/12/24 05:54:19;;;;;;;1.42;1.08;;;;;;;12.04;55.15;97790.78;4991630;28;20194;-57
2023/12/24 05:56:44;;;;;;;1.17;0.90;;;;;;;12.32;55.81;97832.41;4991609;28;20237;-57
2023/12/24 05:59:10;;;;;;;1.60;0.80;;;;;;;12.36;55.36;97859.75;5022960;28;20194;-57
2023/12/24 06:01:35;;;;;;;0.68;0.68;;;;;;;12.08;55.58;97807.72;5032837;28;20194;-57
2023/12/24 06:04:00;;;;;;;0.80;0.80;;;;;;;12.34;55.88;97856.47;5033118;28;20248;-57
2023/12/24 06:06:26;;;;;;;2.03;1.42;;;;;;;12.01;56.28;97801.44;5044386;28;20178;-57
2023/12/24 06:08:51;;;;;;;3.70;1.40;;;;;;;12.33;56.21;97861.78;5032810;28;20174;-58
2023/12/24 06:11:17;;;;;;;1.75;1.65;;;;;;;12.28;56.70;97866.53;5032830;28;20182;-58
2023/12/24 06:13:43;;;;;;;1.83;1.42;;;;;;;11.84;56.64;97786.47;5032702;28;20183;-57
2023/12/24 06:16:08;;;;;;;1.50;1.40;;;;;;;11.81;56.78;97802.25;5032661;28;20182;-57
2023/12/24 06:18:34;;;;;;;1.75;1.65;;;;;;;12.30;56.31;97854.22;5032686;28;20206;-57
2023/12/24 06:20:59;;;;;;;2.33;1.35;;;;;;;12.27;56.81;97859.69;5032568;28;20198;-58
2023/12/24 06:23:24;;;;;;;1.63;1.48;;;;;;;12.15;56.68;97824.41;5032524;28;20182;-58
2023/12/24 06:25:50;;;;;;;2.35;1.70;;;;;;;12.32;56.41;97860.94;5032232;28;20645;-58
2023/12/24 06:28:16;;;;;;;2.17;1.42;;;;;;;12.38;56.96;97859.63;5032427;28;20182;-56
2023/12/24 06:30:41;;;;;;;2.05;1.13;;;;;;;12.21;56.69;97826.50;5031664;28;20554;-56
2023/12/24 06:33:07;;;;;;;1.20;1.17;;;;;;;11.95;56.57;97770.81;5032467;28;20186;-56
2023/12/24 06:35:33;;;;;;;1.20;1.10;;;;;;;11.99;56.85;97790.34;5032335;28;20657;-56
2023/12/24 06:37:58;;;;;;;1.85;1.30;;;;;;;12.39;56.87;97859.50;5032346;28;20178;-56
2023/12/24 06:40:24;;;;;;;1.88;1.55;;;;;;;12.30;57.12;97843.84;5032238;28;20672;-56
2023/12/24 06:42:49;;;;;;;1.25;1.15;;;;;;;11.85;57.23;97762.19;5031939;28;20258;-56
2023/12/24 06:45:14;;;;;;;1.73;1.10;;;;;;;11.92;57.16;97764.13;5046731;28;20239;-56
2023/12/24 06:47:40;;;;;;;1.45;1.30;;;;;;;11.80;57.58;97759.94;5051748;28;20269;-57
2023/12/24 06:50:06;;;;;;;1.40;1.30;;;;;;;12.06;57.87;97788.88;5052091;28;20184;-56
2023/12/24 06:52:32;;;;;;;6.07;1.42;;;;;;;11.88;57.54;97754.13;5051737;28;20182;-56
2023/12/24 06:54:58;;;;;;;1.63;1.02;;;;;;;12.45;57.56;97834.78;5052059;28;20173;-56
2023/12/24 06:57:23;;;;;;;1.40;1.30;;;;;;;12.03;57.71;97768.41;5052019;28;20632;-57
2023/12/24 06:59:49;;;;;;;2.78;1.40;;;;;;;12.50;57.84;97864.59;5052154;28;20177;-57
2023/12/24 07:02:16;;;;;;;2.30;1.27;;;;;;;12.44;57.94;97856.50;5051917;28;20204;-57
2023/12/24 07:04:41;;;;;;;2.35;1.40;;;;;;;12.13;57.85;97803.00;5051604;28;20576;-58
2023/12/24 07:07:06;;;;;;;1.90;1.00;;;;;;;12.45;57.56;97860.72;5051789;28;20178;-57
2023/12/24 07:09:32;;;;;;;1.02;0.95;;;;;;;12.52;56.93;97861.84;5051898;28;20557;-57
2023/12/24 07:11:57;;;;;;;2.22;1.20;;;;;;;12.32;56.51;97829.00;5051636;28;20169;-58
2023/12/24 07:14:23;;;;;;;1.20;1.10;;;;;;;12.67;56.46;97889.13;5051806;28;20178;-56
2023/12/24 07:16:48;;;;;;;0.90;0.90;;;;;;;12.22;55.56;97817.75;5051494;28;20217;-56
2023/12/24 07:19:13;;;;;;;1.33;1.23;;;;;;;12.24;55.36;97826.22;5051863;28;20623;-56
2023/12/24 07:21:39;;;;;;;2.55;1.17;;;;;;;12.51;55.40;97868.00;5051559;28;20212;-56
2023/12/24 07:24:05;;;;;;;0.80;0.80;;;;;;;12.65;55.14;97889.22;5051562;28;20621;-56
2023/12/24 07:26:31;;;;;;;0.60;0.60;;;;;;;12.42;54.81;97846.25;5051315;28;20173;-56
2023/12/24 07:28:56;;;;;;;0.47;0.47;;;;;;;12.68;53.69;97877.78;5051468;28;20178;-56
2023/12/24 07:31:21;;;;;;;0.63;0.63;;;;;;;13.03;53.68;97923.19;5050469;28;20186;-56
2023/12/24 07:33:47;;;;;;;0.60;0.60;;;;;;;12.99;53.41;97932.16;5051821;28;20169;-56
2023/12/24 07:36:15;;;;;;;0.80;0.80;;;;;;;13.11;53.85;97954.50;5049282;28;20216;-56
2023/12/24 07:38:40;;;;;;;0.63;0.63;;;;;;;13.18;53.52;97945.22;5049787;28;20276;-56
2023/12/24 07:41:07;;;;;;;0.50;0.50;;;;;;;12.75;53.04;97860.72;5050555;28;20347;-56
2023/12/24 07:43:32;;;;;;;0.40;0.40;;;;;;;13.11;53.18;97912.09;5053313;28;20185;-57
2023/12/24 07:45:58;;;;;;;0.70;0.70;;;;;;;13.33;53.19;97956.06;5052318;28;20244;-57
2023/12/24 07:48:26;;;;;;;0.65;0.65;;;;;;;12.95;52.88;97875.41;5052332;28;20177;-57
2023/12/24 07:50:51;;;;;;;0.60;0.60;;;;;;;13.08;53.24;97907.19;5051589;28;20672;-56
2023/12/24 07:53:17;;;;;;;1.20;0.73;;;;;;;13.21;52.83;97919.00;5052348;28;20184;-56
2023/12/24 07:55:42;;;;;;;0.93;0.82;;;;;;;13.34;53.03;97923.91;5053211;28;20264;-57
2023/12/24 07:58:08;;;;;;;0.60;0.60;;;;;;;13.16;52.88;97896.94;5073022;28;20677;-58
2023/12/24 08:00:33;;;;;;;1.27;0.80;;;;;;;13.27;53.31;97897.66;5073016;28;20320;-58
2023/12/24 08:02:59;;;;;;;0.60;0.60;;;;;;;13.10;52.58;97871.50;5073086;28;20217;-58
2023/12/24 08:05:24;;;;;;;0.70;0.70;;;;;;;13.68;52.59;97966.78;5073025;28;20185;-58
2023/12/24 08:07:49;;;;;;;0.70;0.70;;;;;;;13.58;52.28;97934.75;5073140;28;20271;-58
2023/12/24 08:10:15;;;;;;;2.58;1.10;;;;;;;13.42;51.97;97908.50;5072350;28;20192;-58
2023/12/24 08:12:40;;;;;;;0.82;0.82;;;;;;;13.31;52.05;97861.84;5072185;28;20189;-57
2023/12/24 08:15:06;;;;;;;0.70;0.70;;;;;;;13.77;51.74;97945.19;5072842;28;20651;-57
2023/12/24 08:17:32;;;;;;;0.60;0.60;;;;;;;13.54;51.63;97897.81;5070736;28;20212;-58
2023/12/24 08:19:57;;;;;;;0.68;0.60;;;;;;;13.59;51.41;97916.44;5063981;28;20686;-58
2023/12/24 08:22:22;;;;;;;1.00;1.00;;;;;;;13.90;52.04;97963.94;5052421;28;20182;-58
2023/12/24 08:24:49;;;;;;;1.77;1.00;;;;;;;13.45;51.52;97892.63;5052224;28;20674;-57
2023/12/24 08:27:14;;;;;;;0.90;0.90;;;;;;;13.76;51.82;97938.38;5052473;28;20243;-57
2023/12/24 08:29:41;;;;;;;2.95;1.50;;;;;;;13.91;52.62;97952.59;5039362;28;20191;-58
2023/12/24 08:32:06;;;;;;;1.60;1.50;;;;;;;14.08;51.63;97959.69;5034803;28;20170;-58
2023/12/24 08:34:32;;;;;;;3.00;0.70;;;;;;;14.10;50.75;97958.59;5034840;28;20605;-58
2023/12/24 08:36:58;;;;;;;1.10;1.00;;;;;;;13.93;51.17;97924.69;5034709;28;20265;-58
2023/12/24 08:39:23;;;;;;;1.50;0.70;;;;;;;13.96;51.10;97894.00;5034818;28;20217;-58
2023/12/24 08:41:49;;;;;;;1.20;0.70;;;;;;;14.21;50.99;97942.06;5034846;28;20198;-57
2023/12/24 08:44:14;;;;;;;0.77;0.77;;;;;;;14.08;50.99;97902.47;5034562;28;20256;-58
2023/12/24 08:46:41;;;;;;;0.70;0.70;;;;;;;14.36;50.13;97935.47;5034515;28;20609;-58
2023/12/24 08:49:08;;;;;;;0.60;0.60;;;;;;;14.02;50.46;97882.22;5034484;28;20236;-57
2023/12/24 08:51:33;;;;;;;0.70;0.70;;;;;;;14.03;49.49;97884.69;5034083;28;20613;-58
2023/12/24 08:53:59;;;;;;;0.52;0.52;;;;;;;13.76;49.21;97831.75;5033583;28;20178;-58
2023/12/24 08:56:24;;;;;;;0.75;0.60;;;;;;;13.95;49.89;97871.53;5034301;28;20237;-58
2023/12/24 08:58:50;;;;;;;0.60;0.60;;;;;;;14.39;49.14;97923.00;5034303;28;20178;-59
2023/12/24 09:01:16;;;;;;;0.40;0.40;;;;;;;13.76;48.97;97823.97;5030651;28;20595;-60
2023/12/24 09:03:42;;;;;;;1.05;0.65;;;;;;;14.46;49.31;97937.09;5008705;28;20713;-59
2023/12/24 09:06:07;;;;;;;0.50;0.50;;;;;;;14.08;48.31;97846.06;5011485;28;20187;-59
2023/12/24 09:08:33;;;;;;;0.68;0.30;;;;;;;14.61;48.36;97924.44;5012123;28;20191;-56
2023/12/24 09:10:58;;;;;;;0.50;0.50;;;;;;;14.63;48.74;97925.13;5012108;28;20195;-56
2023/12/24 09:13:24;;;;;;;0.55;0.55;;;;;;;14.40;48.35;97874.38;5012029;28;20191;-56
2023/12/24 09:15:49;;;;;;;0.40;0.40;;;;;;;14.60;47.44;97883.75;5012044;28;20202;-56
2023/12/24 09:18:14;;;;;;;0.65;0.65;;;;;;;14.54;47.52;97868.69;5011980;28;20233;-58
2023/12/24 09:20:40;;;;;;;0.50;0.50;;;;;;;14.48;47.86;97840.63;5011744;28;20215;-58
2023/12/24 09:23:05;;;;;;;0.60;0.60;;;;;;;14.61;47.93;97864.56;5012124;28;20219;-56
2023/12/24 09:25:31;;;;;;;2.75;0.70;;;;;;;14.55;48.31;97865.97;5011716;28;20190;-56
2023/12/24 09:27:56;;;;;;;0.60;0.60;;;;;;;14.85;47.99;97919.56;5011674;28;20194;-56
2023/12/24 09:30:24;;;;;;;0.60;0.60;;;;;;;14.45;47.73;97852.16;5011916;28;20187;-56
2023/12/24 09:32:49;;;;;;;0.50;0.50;;;;;;;14.64;47.20;97885.91;5036914;28;20198;-56
2023/12/24 09:35:14;;;;;;;1.38;0.50;;;;;;;14.87;47.23;97917.66;5032486;28;20251;-56
2023/12/24 09:37:40;;;;;;;0.93;0.50;;;;;;;14.56;46.78;97879.78;5033201;28;20179;-56
2023/12/24 09:40:07;;;;;;;1.10;0.82;;;;;;;14.46;47.18;97853.78;5032780;28;20263;-57
2023/12/24 09:42:34;;;;;;;0.50;0.50;;;;;;;14.76;47.47;97883.97;5032464;28;20649;-57
2023/12/24 09:44:59;;;;;;;0.70;0.70;;;;;;;14.97;47.02;97898.41;5030832;28;20179;-57
2023/12/24 09:47:25;;;;;;;0.95;0.60;;;;;;;14.91;47.51;97882.50;5030763;28;20336;-57
2023/12/24 09:49:50;;;;;;;2.17;0.93;;;;;;;14.98;47.47;97889.63;5029578;28;20279;-57
2023/12/24 09:52:16;;;;;;;0.50;0.50;;;;;;;15.12;46.43;97885.72;5031021;28;20191;-57
2023/12/24 09:54:42;;;;;;;0.50;0.50;;;;;;;14.93;46.54;97844.94;5031934;28;20214;-57
2023/12/24 09:57:08;;;;;;;0.98;0.68;;;;;;;15.15;47.42;97868.00;5049444;28;20625;-57
2023/12/24 09:59:33;;;;;;;1.25;0.90;;;;;;;14.93;46.80;97823.28;5047338;28;20280;-57
2023/12/24 10:01:58;;;;;;;0.60;0.60;;;;;;;15.30;45.92;97876.13;5039909;28;20344;-57
2023/12/24 10:04:27;;;;;;;1.65;1.30;;;;;;;15.37;46.19;97891.06;5050330;28;20190;-57
2023/12/24 10:06:57;;;;;;;1.38;1.13;;;;;;;15.32;45.66;97869.84;5050349;28;20268;-57
2023/12/24 10:09:24;;;;;;;2.45;1.60;;;;;;;15.37;46.00;97880.63;5050321;28;20174;-57
2023/12/24 10:12:08;;;;;;;2.50;1.30;;;;;;;15.32;45.86;97882.00;5050313;28;20185;-57
2023/12/24 10:14:34;;;;;;;1.08;1.02;;;;;;;15.14;46.75;97852.50;5050293;28;20166;-57
2023/12/24 10:17:00;;;;;;;1.88;1.40;;;;;;;14.98;46.26;97808.03;5052083;28;20197;-57
2023/12/24 10:19:27;;;;;;;6.13;3.65;;;;;;;15.19;47.07;97837.25;5052527;28;20182;-57
2023/12/24 10:21:59;;;;;;;4.35;2.78;;;;;;;15.41;46.50;97874.19;5052491;28;20698;-57
2023/12/24 10:24:27;;;;;;;6.75;3.40;;;;;;;15.08;46.51;97811.38;5052445;28;20189;-57
2023/12/24 10:27:03;;;;;;;6.07;3.08;;;;;;;15.53;46.42;97880.81;5051816;28;20598;-57
2023/12/24 10:29:29;;;;;;;5.28;2.97;;;;;;;15.61;47.05;97893.09;5052466;28;20169;-58
2023/12/24 10:31:54;;;;;;;4.60;3.35;;;;;;;15.62;46.51;97894.75;5029903;28;20699;-58
2023/12/24 10:34:20;;;;;;;4.03;3.10;;;;;;;15.16;47.18;97830.53;5029914;28;20194;-56
2023/12/24 10:36:46;;;;;;;3.17;2.03;;;;;;;15.31;46.91;97841.28;5029873;28;20277;-56
2023/12/24 10:39:13;;;;;;;3.95;2.50;;;;;;;15.19;47.83;97829.41;5029897;28;20236;-56
2023/12/24 10:41:39;;;;;;;2.80;2.28;;;;;;;15.41;48.18;97868.97;5029712;28;20241;-56
2023/12/24 10:44:04;;;;;;;4.32;2.45;;;;;;;15.38;48.25;97865.81;5029672;28;20206;-56
2023/12/24 10:46:29;;;;;;;5.43;3.28;;;;;;;15.11;48.02;97827.53;5009960;28;20191;-56
2023/12/24 10:48:55;;;;;;;3.97;3.13;;;;;;;15.23;48.47;97857.63;5009905;28;20539;-56
2023/12/24 10:51:20;;;;;;;6.60;3.47;;;;;;;14.93;48.96;97808.47;5009933;28;20273;-56
2023/12/24 10:53:47;;;;;;;5.00;3.03;;;;;;;15.33;48.40;97863.66;5010180;28;20669;-56
2023/12/24 10:56:18;;;;;;;4.88;2.45;;;;;;;15.33;47.94;97857.63;5009833;28;20194;-56
2023/12/24 10:58:55;;;;;;;1.30;1.20;;;;;;;15.16;47.52;97822.72;5010187;28;20174;-57
2023/12/24 11:01:21;;;;;;;1.25;1.20;;;;;;;15.28;47.65;97838.97;5009613;28;20277;-58
2023/12/24 11:03:47;;;;;;;2.95;2.08;;;;;;;15.35;48.30;97840.06;5009750;28;20648;-57
2023/12/24 11:06:36;;;;;;;4.35;2.72;;;;;;;15.43;48.65;97837.50;5009695;28;20195;-57
2023/12/24 11:09:08;;;;;;;4.00;2.38;;;;;;;15.17;47.80;97787.06;4965721;28;20734;-58
2023/12/24 11:11:53;;;;;;;3.40;2.85;;;;;;;15.40;46.96;97790.88;4990025;28;20195;-57
2023/12/24 11:14:36;;;;;;;3.38;2.20;;;;;;;15.76;45.91;97839.44;4987533;28;20663;-58
2023/12/24 11:17:02;;;;;;;3.13;2.53;;;;;;;15.38;46.29;97756.31;4972138;28;20200;-58
2023/12/24 11:19:28;;;;;;;4.07;3.33;;;;;;;15.72;45.93;97791.97;4970647;28;20288;-57
2023/12/24 11:22:10;;;;;;;3.65;2.45;;;;;;;15.90;45.32;97828.44;4970541;28;20734;-57
2023/12/24 11:24:41;;;;;;;2.10;1.90;;;;;;;15.64;44.93;97772.84;4970296;28;20219;-56
2023/12/24 11:27:08;;;;;;;1.77;1.67;;;;;;;15.72;45.65;97791.13;4970522;28;20223;-58
2023/12/24 11:29:54;;;;;;;2.42;1.60;;;;;;;15.99;45.25;97828.38;4970545;28;20188;-59